Latest Coastal Weather Observations for St Helens

IDT60701

Issued at 7:32 pm EST Wednesday 6 May 2026 (issued every 10 minutes, with the page automatically refreshed every 10 minutes)

About coastal observations | Map of coastal stations | Coastal observations for TAS | Marine services | Other Formats
Station Details ID: 092120 Name: ST HELENS AERODROME Lat: -41.34 Lon: 148.28 Height: 48.0 m
Data from the previous 72 hours. | See also: Recent months at St Helens
Date/Time
EST
Wind Sea
Height
m
Swell Vis
km
Cloud Weather Temp
°C
Press
MSL
hPa
Rain since
9am
mm
Dir  Spd
kts
Gust
kts
Height
m
Period
s
Dir
06/07:30pm N 8 13 - - - - 10 Mostly clear - 13.1 1006.6 2.6
06/07:00pm N 7 11 - - - - 10 Partly cloudy - 12.9 1006.9 2.6
06/06:30pm N 8 15 - - - - 10 Partly cloudy - 13.4 1007.1 1.8
06/06:00pm NNW 4 9 - - - - 10 Cloudy - 13.8 1007.2 1.6
06/05:30pm N 10 14 - - - - 10 Partly cloudy - 13.8 1007.3 1.6
06/05:00pm N 7 11 - - - - 10 Mostly clear - 13.8 1007.4 1.6
06/04:30pm NW 10 17 - - - - 10 Mostly clear - 14.4 1007.8 1.6
06/04:00pm NNW 10 17 - - - - 10 Partly cloudy - 14.3 1008.3 1.6
06/03:42pm N 9 17 - - - - 10 Mostly clear - 14.1 1008.3 1.6
06/03:41pm N 9 17 - - - - 10 Partly cloudy - 14.0 1008.4 1.6
06/03:30pm NNW 9 17 - - - - 5 Partly cloudy - 13.9 1008.7 1.6
06/03:02pm WNW 7 12 - - - - 3 Partly cloudy - 14.0 1009.1 0.8
06/03:00pm WNW 8 13 - - - - 3 Cloudy - 14.1 1009.2 0.4
06/02:57pm WNW 8 13 - - - - 4 Partly cloudy - 14.3 1009.2 0.4
06/02:30pm NNW 9 19 - - - - 10 Mostly clear - 15.7 1009.3 0.0
06/02:00pm NNW 9 17 - - - - 10 Partly cloudy - 16.0 1009.7 0.0
06/01:30pm NNW 10 14 - - - - 10 Partly cloudy - 16.3 1010.3 0.0
06/01:00pm NW 8 14 - - - - 10 Partly cloudy - 16.6 1010.9 0.0
06/12:30pm NNW 8 15 - - - - 10 Partly cloudy - 16.4 1011.6 0.0
06/12:00pm WNW 7 14 - - - - 10 Cloudy - 16.6 1011.9 0.0
06/11:30am WNW 9 18 - - - - 10 Mostly clear - 16.4 1012.4 0.0
06/11:00am NW 12 18 - - - - 10 Mostly clear - 16.0 1012.9 0.0
06/10:30am W 13 24 - - - - 10 Partly cloudy - 15.9 1013.1 0.0
06/10:00am W 11 19 - - - - 10 - - 16.3 1013.0 0.0
06/09:33am W 14 27 - - - - 10 - - 16.0 1013.3 0.0
06/09:30am W 14 25 - - - - 10 - - 16.0 1013.2 0.0
06/09:28am W 13 25 - - - - 10 - - 15.9 1013.2 0.0
06/09:00am W 11 21 - - - - 10 - - 15.7 1013.5 0.2
06/08:30am W 12 21 - - - - 10 - - 15.3 1013.7 0.2
06/08:00am W 9 15 - - - - 10 Partly cloudy - 14.7 1014.2 0.2
06/07:30am WNW 7 11 - - - - 10 Mostly clear - 14.1 1014.4 0.2
06/07:00am WNW 8 14 - - - - 10 Partly cloudy - 14.2 1014.4 0.2
06/06:30am WNW 6 11 - - - - 10 Partly cloudy - 13.9 1014.4 0.2
06/06:00am W 7 13 - - - - 10 Mostly clear - 13.7 1014.3 0.2
06/05:30am W 6 11 - - - - 10 Partly cloudy - 13.8 1014.5 0.2
06/05:00am WNW 8 14 - - - - 10 Mostly clear - 13.7 1014.5 0.2
06/04:30am WNW 8 14 - - - - 10 - - 13.5 1014.6 0.2
06/04:00am W 10 18 - - - - 10 - - 13.4 1014.5 0.2
06/03:30am WNW 9 16 - - - - 10 - - 13.6 1014.8 0.2
06/03:00am NNW 6 11 - - - - 10 - - 12.6 1015.2 0.2
06/02:30am NNW 5 10 - - - - 10 - - 12.4 1015.7 0.2
06/02:00am WNW 7 16 - - - - 10 - - 12.9 1015.8 0.2
06/01:30am W 5 8 - - - - 10 - - 11.7 1015.8 0.2
06/01:00am WNW 5 9 - - - - 10 - - 11.3 1016.0 0.2
06/12:30am NNW 5 7 - - - - 10 - - 11.5 1015.9 0.2
06/12:00am WNW 7 11 - - - - 10 - - 11.8 1015.8 0.2
 
Date/Time
EST
Wind Sea
Height
m
Swell Vis
km
Cloud Weather Temp
°C
Press
MSL
hPa
Rain since
9am
mm
Dir  Spd
kts
Gust
kts
Height
m
Period
s
Dir
05/11:30pm WSW 5 8 - - - - 10 - - 11.7 1015.9 0.2
05/11:00pm WNW 5 9 - - - - 10 - - 12.1 1016.2 0.2
05/10:30pm SW 5 9 - - - - 10 - - 11.4 1016.1 0.2
05/10:00pm WNW 5 7 - - - - 10 - - 12.2 1016.3 0.2
05/09:30pm NW 3 6 - - - - 10 - - 12.2 1016.4 0.2
05/09:00pm NNW 3 8 - - - - 10 - - 12.3 1016.3 0.2
05/08:30pm NW 6 8 - - - - 10 - - 12.6 1016.3 0.2
05/08:00pm NNW 3 5 - - - - 10 - - 12.4 1016.3 0.2
05/07:30pm NNW 4 6 - - - - 10 - - 12.9 1016.1 0.2
05/07:00pm N 4 6 - - - - 10 - - 13.0 1016.0 0.2
05/06:30pm CALM 0 3 - - - - 10 - - 14.7 1015.6 0.2
05/06:00pm CALM 0 0 - - - - 10 - - 15.1 1015.2 0.2
05/05:30pm CALM 0 1 - - - - 10 - - 15.3 1014.8 0.2
05/05:00pm E 3 6 - - - - 10 Mostly clear - 15.5 1014.3 0.2
05/04:30pm E 1 4 - - - - 10 Partly cloudy - 16.4 1014.2 0.2
05/04:00pm NE 7 10 - - - - 10 Partly cloudy - 17.1 1013.6 0.2
05/03:30pm NE 7 11 - - - - 10 Partly cloudy - 17.7 1013.3 0.2
05/03:00pm NE 7 9 - - - - 10 Mostly clear - 17.5 1013.0 0.2
05/02:30pm NE 8 10 - - - - 10 Mostly clear - 18.4 1012.5 0.2
05/02:00pm NE 9 11 - - - - 10 Partly cloudy - 18.7 1012.2 0.2
05/01:30pm NE 10 13 - - - - 10 Partly cloudy - 19.5 1012.0 0.2
05/01:00pm SW 2 5 - - - - 10 Partly cloudy - 20.6 1011.8 0.2
05/12:30pm SW 6 10 - - - - 10 - - 19.7 1012.0 0.2
05/12:00pm SSW 8 15 - - - - 10 - - 18.8 1012.0 0.0
05/11:30am SSW 8 14 - - - - 10 - - 18.2 1012.1 0.0
05/11:00am SSW 5 9 - - - - 10 - - 18.2 1011.8 0.0
05/10:30am SSW 5 11 - - - - 10 - - 17.4 1011.5 0.0
05/10:00am WNW 4 7 - - - - 10 Mostly clear - 16.4 1011.3 0.0
05/09:30am NNW 3 5 - - - - 10 - - 15.2 1010.9 0.0
05/09:00am NNW 5 6 - - - - 10 - Recent precip. 13.5 1010.8 1.8
05/08:30am NNW 3 6 - - - - 10 - - 12.5 1010.6 1.8
05/08:00am N 6 8 - - - - 10 Mostly clear - 11.5 1010.0 1.6
05/07:30am NNW 6 7 - - - - 10 Mostly clear - 11.0 1009.5 1.6
05/07:00am N 5 6 - - - - 10 Mostly clear - 11.2 1009.2 1.6
05/06:30am WNW 4 5 - - - - 10 Mostly clear - 11.2 1008.9 1.6
05/06:00am NNW 5 6 - - - - 10 Partly cloudy - 11.4 1008.3 1.6
05/05:30am NW 4 6 - - - - 10 Partly cloudy - 12.4 1008.2 1.6
05/05:00am WSW 1 4 - - - - 10 Partly cloudy - 11.5 1008.3 1.6
05/04:30am CALM 0 2 - - - - 10 Mostly clear - 11.2 1007.8 1.6
05/04:00am NNE 2 5 - - - - 10 Mostly clear - 11.5 1007.6 1.6
05/03:30am N 2 4 - - - - 10 Partly cloudy - 12.0 1007.8 1.6
05/03:00am CALM 0 3 - - - - 10 Cloudy - 11.9 1008.1 1.2
05/02:30am WNW 2 4 - - - - 10 Partly cloudy - 12.0 1008.2 1.2
05/02:00am N 4 6 - - - - 10 Mostly clear - 11.9 1008.5 0.8
05/01:30am NNW 4 7 - - - - 10 Mostly clear - 11.6 1008.9 0.4
05/01:00am N 1 4 - - - - 10 Partly cloudy - 11.8 1008.8 0.4
05/12:30am NNE 1 4 - - - - 10 Cloudy - 11.2 1009.1 0.4
05/12:00am NW 2 5 - - - - 10 Cloudy - 11.6 1009.3 0.4
 
Date/Time
EST
Wind Sea
Height
m
Swell Vis
km
Cloud Weather Temp
°C
Press
MSL
hPa
Rain since
9am
mm
Dir  Spd
kts
Gust
kts
Height
m
Period
s
Dir
04/11:30pm NNW 4 5 - - - - 10 Partly cloudy - 11.6 1009.4 0.4
04/11:00pm N 5 8 - - - - 10 Mostly clear - 11.4 1010.0 0.2
04/10:30pm NNW 3 5 - - - - 10 Partly cloudy - 11.1 1009.8 0.2
04/10:00pm N 3 5 - - - - 10 Mostly clear - 11.3 1010.1 0.2
04/09:30pm NNW 1 3 - - - - 10 Partly cloudy - 11.7 1010.2 0.2
04/09:00pm NNW 2 4 - - - - 10 Cloudy - 11.6 1010.2 0.2
04/08:30pm CALM 0 0 - - - - 10 Partly cloudy - 11.6 1010.0 0.2
04/08:00pm N 4 5 - - - - 10 Mostly clear - 11.9 1010.1 0.2
04/07:30pm NNW 3 5 - - - - 10 Partly cloudy - 12.1 1009.9 0.2
04/07:00pm CALM 0 0 - - - - 10 Mostly clear - 12.6 1010.1 0.2
04/06:30pm NNW 1 3 - - - - 10 Partly cloudy - 13.0 1010.1 0.2
04/06:00pm WNW 1 5 - - - - 10 Partly cloudy - 13.5 1009.9 0.2
04/05:30pm NNW 4 5 - - - - 10 Mostly clear - 14.3 1010.0 0.2
04/05:00pm WNW 5 10 - - - - 10 Mostly clear - 15.0 1009.9 0.2
04/04:30pm W 5 11 - - - - 10 Mostly clear - 15.8 1009.5 0.2
04/04:00pm WNW 8 15 - - - - 10 Mostly clear - 16.8 1009.3 0.2
04/03:30pm NW 9 16 - - - - 10 Mostly clear - 17.9 1009.1 0.2
04/03:00pm WNW 5 9 - - - - 10 Cloudy - 17.7 1009.1 0.2
04/02:30pm NW 7 13 - - - - 10 Mostly clear - 19.7 1008.8 0.2
04/02:00pm NNW 8 13 - - - - 10 - - 19.1 1008.9 0.2
04/01:30pm NNW 9 14 - - - - 10 Mostly clear - 19.0 1009.2 0.2
04/01:00pm NW 9 14 - - - - 10 Mostly clear - 19.7 1009.5 0.2
04/12:30pm N 10 14 - - - - 10 Partly cloudy - 19.2 1009.8 0.0
04/12:00pm N 11 18 - - - - 10 Mostly clear - 18.5 1010.4 0.0
04/11:30am NNW 10 16 - - - - 10 - - 18.4 1011.0 0.0
04/11:00am NW 7 11 - - - - 10 - - 18.3 1011.4 0.0
04/10:30am NNW 6 8 - - - - 10 Mostly clear - 17.8 1011.6 0.0
04/10:00am NNW 3 5 - - - - 10 - - 17.0 1011.8 0.0
04/09:30am N 3 4 - - - - 10 - - 16.0 1011.5 0.0
04/09:00am CALM 0 0 - - - - 10 - - 14.8 1011.5 22.0
04/08:30am CALM 0 3 - - - - 10 - - 13.7 1011.7 22.0
04/08:00am CALM 0 3 - - - - 10 - - 13.3 1011.5 22.0
04/07:30am CALM 0 0 - - - - 10 - - 12.5 1011.1 22.0
04/07:00am NNW 3 7 - - - - 10 - - 12.8 1010.9 22.0
04/06:30am N 2 5 - - - - 10 - - 13.4 1010.5 22.0
04/06:00am N 5 7 - - - - 10 Cloudy - 13.5 1010.2 22.0
04/05:30am NW 3 6 - - - - 10 - - 13.6 1010.0 22.0
04/05:00am W 1 4 - - - - 10 - - 13.9 1010.0 22.0
04/04:30am N 6 8 - - - - 10 - - 14.8 1009.8 22.0
04/04:00am NNW 5 8 - - - - 10 - - 14.9 1009.7 22.0
04/03:30am WNW 5 7 - - - - 10 - - 14.8 1009.4 22.0
04/03:00am NW 6 9 - - - - 10 Cloudy - 15.3 1009.1 22.0
04/02:30am NW 5 10 - - - - 10 Partly cloudy - 15.9 1009.6 22.0
04/02:00am N 8 11 - - - - 10 Mostly clear - 16.1 1009.8 22.0
04/01:30am N 6 9 - - - - 10 Mostly clear - 16.1 1009.8 22.0
04/01:00am N 7 11 - - - - 10 Mostly clear - 16.2 1010.2 21.6
04/12:30am NNE 7 10 - - - - 10 Mostly clear - 16.5 1010.2 21.6
04/12:12am N 5 8 - - - - 10 Mostly clear - 16.6 1010.4 21.6
04/12:00am NNW 6 9 - - - - 10 Cloudy - 16.7 1010.8 21.6
 
Date/Time
EST
Wind Sea
Height
m
Swell Vis
km
Cloud Weather Temp
°C
Press
MSL
hPa
Rain since
9am
mm
Dir  Spd
kts
Gust
kts
Height
m
Period
s
Dir
03/11:30pm N 6 11 - - - - 10 Partly cloudy - 16.6 1011.1 21.4
03/11:23pm N 6 9 - - - - 10 Partly cloudy - 16.5 1011.2 21.4
03/11:00pm NNW 3 4 - - - - 10 Mostly clear - 16.0 1011.4 20.8
03/10:58pm NNW 3 4 - - - - 10 Mostly clear - 16.0 1011.5 20.8
03/10:55pm NNW 3 4 - - - - 8 Mostly clear - 16.0 1011.6 20.8
03/10:30pm NW 5 8 - - - - 1 Mostly clear - 16.1 1012.1 19.8
03/10:00pm W 3 5 - - - - 0.9 Partly cloudy - 16.1 1011.6 13.6
03/09:55pm WNW 4 5 - - - - 0.9 Mostly clear - 16.1 1011.8 12.4
03/09:45pm NNW 3 6 - - - - 3 Mostly clear - 16.1 1012.2 6.2
03/09:44pm NNW 3 6 - - - - 2 Mostly clear - 16.1 1012.1 5.8
03/09:30pm SW 1 4 - - - - 3 Mostly clear - 16.1 1012.0 4.0
03/09:28pm CALM 0 3 - - - - 4 Mostly clear - 16.1 1012.0 3.2
03/09:26pm CALM 0 0 - - - - 7 Mostly clear - 16.1 1011.9 2.4
03/09:00pm CALM 0 0 - - - - 10 Mostly cloudy - 16.0 1011.9 1.6
03/08:30pm CALM 0 3 - - - - 10 Cloudy - 16.1 1012.2 1.0
03/08:00pm N 5 6 - - - - 10 Cloudy - 16.0 1011.8 1.0

Other formats

Comma delimited format used in spreadsheet applications
http://www.bom.gov.au/fwo/IDT60701/IDT60701.95981.axf

JavaScript Object Notation format (JSON) in row-major order
http://www.bom.gov.au/fwo/IDT60701/IDT60701.95981.json

Data quality

Most of these data are generated automatically and are frequently updated. Quality checks on data are not normally performed. It is possible for incorrect values to appear. Refer to information at About Latest Weather Observations and please check the disclaimer before using these data.